Pagrindinis puslapis
METAR-TAF:

METAR-TAF

Oro uostai :

Penang, Malaizija

platuma: 05-18N, ilguma: 100-16E, Aukštis: 3 m

Dabartinis oras

Ataskaita buvo paskelbta 27 minutes, ne 22:30 UTC
Vėjas 2 kt nuo kintamojo kryptimis
Temperatūra 27°C
Drėgmė 89%
Slėgis 1008 hPa
Matomumas: 8000 m
Mažai debesys ne aukštis 2500 ft

METAR: WMKP 302230Z VRB02KT 8000 FEW025 27/25 Q1008 NOSIG

Laikas: 06:57 (22:57 UTC)

Prognozė

Ataskaita buvo paskelbta 5 valandos ir 57 minutes, ne 17:00 UTC
Prognozė galioja nuo 30 metu 18 UTC su 31 metu 18 UTC
Vėjas 3 kt nuo kintamojo kryptimis
Matomumas: 8000 m
Mažai debesys ne aukštis 2500 ft
Tapsmas
nuo 31 metu 00 UTC su 31 metu 02 UTC
Vėjas 6 kt iš Šiaurės/Šiaurės Rytų
Mažai debesys ne aukštis 2000 ft
Tapsmas
nuo 31 metu 04 UTC su 31 metu 06 UTC
Vėjas 7 kt iš Vakarų/Pietvakarių
Matomumas: 9000 m
Mažai debesys ne aukštis 1700 ft, Liūtiniai kamuoliniai debesys.

TAF: WMKP 301700Z 3018/3118 VRB03KT 8000 FEW025 BECMG 3100/3102 02006KT FEW020 BECMG 3104/3106 25007KT 9000 FEW017CB

Orai ataskaitas ir orų prognozės (METAR, TAF).

turimą stotys yra geltonos ir raudonos taškus žemėlapyje.

Perkelti pele per norėdami pamatyti stoties vardą.

Tada spustelėkite, norėdami matyti oro stebėjimo ir prognozės.

Norėdami pakeisti žemėlapį: spustelėkite ant žalios mygtukų su juodo kryžiaus žemyn,; žalią mygtuką su brūkšneliu, jei norite nutolinti; arba žalių rodyklių gretimoms žemėlapius.


METAR-TAF: